createdAt,value
2023-05-26T00:00:11.237Z,6.02
2023-05-26T00:05:18.452Z,8.18
2023-05-26T00:10:21.839Z,9.75
2023-05-26T00:15:24.792Z,9.71
2023-05-26T00:20:27.808Z,8.66
2023-05-26T00:25:30.802Z,8.00
2023-05-26T00:30:33.742Z,7.80
2023-05-26T00:35:37.011Z,7.76
2023-05-26T00:40:41.496Z,7.60
2023-05-26T00:45:44.753Z,7.47
2023-05-26T00:50:48.219Z,7.41
2023-05-26T00:55:52.808Z,7.40
2023-05-26T01:00:55.782Z,7.41
2023-05-26T01:05:58.715Z,7.37
2023-05-26T01:11:15.461Z,7.37
2023-05-26T01:16:22.669Z,7.37
2023-05-26T01:21:29.212Z,7.44
2023-05-26T01:27:02.397Z,7.63
2023-05-26T01:32:16.874Z,7.66
2023-05-26T01:37:19.911Z,7.78
2023-05-26T01:42:31.662Z,7.85
2023-05-26T01:47:37.509Z,7.98
2023-05-26T01:52:44.004Z,8.13
2023-05-26T01:57:47.732Z,8.25
2023-05-26T02:02:51.005Z,8.35
2023-05-26T02:07:54.334Z,8.30
2023-05-26T02:12:57.428Z,8.37
2023-05-26T02:18:00.705Z,8.54
2023-05-26T02:23:03.841Z,8.64
2023-05-26T02:28:06.918Z,8.91
2023-05-26T02:33:09.807Z,9.17
2023-05-26T02:38:12.773Z,9.27
2023-05-26T02:43:15.744Z,9.37
2023-05-26T02:48:19.040Z,9.56
2023-05-26T02:53:22.235Z,9.85
2023-05-26T02:58:25.359Z,9.74
2023-05-26T03:03:28.392Z,9.86
2023-05-26T03:08:31.392Z,10.00
2023-05-26T03:13:35.784Z,10.18
2023-05-26T03:18:39.212Z,10.36
2023-05-26T03:23:42.342Z,10.86
2023-05-26T03:28:45.473Z,11.51
2023-05-26T03:33:48.552Z,12.18
2023-05-26T03:38:51.800Z,12.75
2023-05-26T03:43:54.874Z,12.35
2023-05-26T03:48:58.374Z,12.51
2023-05-26T03:54:01.682Z,12.65
2023-05-26T03:59:05.064Z,13.18
2023-05-26T04:04:09.055Z,13.35
2023-05-26T04:09:11.969Z,13.17
2023-05-26T04:14:14.996Z,12.88
2023-05-26T04:19:18.157Z,12.15
2023-05-26T04:24:21.044Z,11.96
2023-05-26T04:29:25.985Z,11.65
2023-05-26T04:34:38.864Z,11.64
2023-05-26T04:39:59.459Z,12.22
2023-05-26T04:45:03.941Z,12.46
2023-05-26T04:50:08.443Z,13.09
2023-05-26T04:55:12.257Z,14.31
2023-05-26T05:00:16.023Z,14.56
2023-05-26T05:05:23.183Z,14.37
2023-05-26T05:10:26.355Z,13.29
2023-05-26T05:15:31.521Z,12.73
2023-05-26T05:20:34.613Z,12.87
2023-05-26T05:25:37.589Z,13.35
2023-05-26T05:30:41.439Z,13.04
2023-05-26T05:35:46.668Z,12.92
2023-05-26T05:40:50.163Z,12.52
2023-05-26T05:45:53.107Z,12.83
2023-05-26T05:51:25.233Z,13.18
2023-05-26T05:56:28.438Z,13.73
2023-05-26T06:01:31.998Z,14.50
2023-05-26T06:06:34.963Z,14.13
2023-05-26T06:11:39.889Z,14.02
2023-05-26T06:16:44.120Z,14.02
2023-05-26T06:21:47.198Z,13.69
2023-05-26T06:26:50.487Z,13.33
2023-05-26T06:31:54.666Z,13.66
2023-05-26T06:36:57.784Z,13.83
2023-05-26T06:42:01.452Z,13.95
2023-05-26T06:47:04.670Z,13.74
2023-05-26T06:52:11.187Z,13.68
2023-05-26T06:57:15.300Z,13.52
2023-05-26T07:02:18.420Z,13.26
2023-05-26T07:07:21.460Z,13.36
2023-05-26T07:12:24.729Z,13.50
2023-05-26T07:17:30.067Z,13.55
2023-05-26T07:22:33.104Z,13.74
2023-05-26T07:27:43.658Z,13.83
2023-05-26T07:32:46.882Z,14.15
2023-05-26T07:37:50.169Z,14.11
2023-05-26T07:42:53.146Z,14.86
2023-05-26T07:47:56.299Z,15.51
2023-05-26T07:52:59.244Z,14.70
2023-05-26T07:58:02.530Z,14.83
2023-05-26T08:03:06.215Z,15.15
2023-05-26T08:08:09.239Z,15.87
2023-05-26T08:13:12.187Z,16.53
2023-05-26T08:18:15.297Z,16.58
2023-05-26T08:23:18.365Z,15.88
2023-05-26T08:28:21.360Z,15.77
2023-05-26T08:33:24.213Z,16.44
2023-05-26T08:38:27.312Z,16.56
2023-05-26T08:48:48.681Z,17.49
2023-05-26T08:53:51.705Z,17.11
2023-05-26T08:58:56.080Z,16.67
2023-05-26T09:03:59.022Z,16.11
2023-05-26T09:09:01.920Z,16.34
2023-05-26T09:14:04.844Z,16.55
2023-05-26T09:19:09.064Z,16.94
2023-05-26T09:24:12.124Z,17.13
2023-05-26T09:29:15.959Z,16.67
2023-05-26T09:34:22.707Z,16.29
2023-05-26T09:39:33.931Z,15.84
2023-05-26T09:44:38.243Z,15.70
2023-05-26T09:49:41.244Z,16.22
2023-05-26T09:54:44.338Z,16.81
2023-05-26T09:59:49.646Z,17.56
2023-05-26T10:04:53.200Z,17.18
2023-05-26T10:10:03.380Z,16.66
2023-05-26T10:15:09.467Z,16.72
2023-05-26T10:20:12.998Z,16.38
2023-05-26T10:25:24.034Z,16.41
2023-05-26T10:30:28.575Z,16.83
2023-05-26T10:35:32.976Z,16.60
2023-05-26T10:40:45.858Z,16.63
2023-05-26T10:46:08.271Z,16.70
2023-05-26T10:51:25.777Z,16.33
2023-05-26T10:56:44.533Z,16.20
2023-05-26T11:01:52.607Z,16.26
2023-05-26T11:07:00.869Z,16.11
2023-05-26T11:12:07.354Z,16.52
2023-05-26T11:17:10.343Z,16.33
2023-05-26T11:22:14.811Z,15.88
2023-05-26T11:27:17.810Z,15.86
2023-05-26T11:32:20.807Z,15.96
2023-05-26T11:37:24.684Z,16.25
2023-05-26T11:42:27.650Z,16.59
2023-05-26T11:47:32.425Z,16.48
2023-05-26T11:52:35.916Z,16.24
2023-05-26T11:57:40.180Z,15.94
2023-05-26T12:02:43.711Z,15.58
2023-05-26T12:07:47.760Z,15.47
2023-05-26T12:12:52.495Z,15.70
2023-05-26T12:17:57.273Z,15.78
2023-05-26T12:23:04.340Z,15.93
2023-05-26T12:28:07.461Z,15.55
2023-05-26T12:33:10.444Z,14.91
2023-05-26T12:38:14.390Z,14.35
2023-05-26T12:43:18.070Z,14.05
2023-05-26T12:48:21.301Z,13.81
2023-05-26T12:53:24.279Z,13.66
2023-05-26T12:58:27.394Z,13.58
2023-05-26T13:03:30.359Z,13.48
2023-05-26T13:08:33.792Z,13.45
2023-05-26T13:13:37.231Z,13.39
2023-05-26T13:18:41.262Z,13.34
2023-05-26T13:23:44.191Z,13.29
2023-05-26T13:28:47.025Z,13.22
2023-05-26T13:33:50.360Z,13.14
2023-05-26T13:38:53.326Z,13.06
2023-05-26T13:43:56.316Z,12.98
2023-05-26T13:48:59.590Z,12.90
2023-05-26T13:54:03.395Z,12.78
2023-05-26T13:59:06.293Z,12.71
2023-05-26T14:04:09.598Z,12.63
2023-05-26T14:09:12.477Z,12.47
2023-05-26T14:14:16.723Z,12.43
2023-05-26T14:19:23.738Z,12.37
2023-05-26T14:24:29.560Z,12.25
2023-05-26T14:29:33.188Z,12.13
2023-05-26T14:34:36.335Z,12.02
2023-05-26T14:39:39.276Z,11.92
2023-05-26T14:44:42.264Z,11.87
2023-05-26T14:49:45.117Z,11.70
2023-05-26T14:54:47.998Z,11.64
2023-05-26T14:59:51.346Z,11.52
2023-05-26T15:04:54.310Z,11.42
2023-05-26T15:09:57.231Z,11.40
2023-05-26T15:15:00.165Z,11.31
2023-05-26T15:20:04.536Z,11.27
2023-05-26T15:25:07.833Z,11.23
2023-05-26T15:30:11.377Z,11.15
2023-05-26T15:35:15.187Z,11.06
2023-05-26T15:40:18.159Z,11.01
2023-05-26T15:45:23.891Z,10.88
2023-05-26T15:50:27.225Z,10.79
2023-05-26T15:55:30.377Z,10.71
2023-05-26T16:00:33.273Z,10.65
2023-05-26T16:05:36.592Z,10.65
2023-05-26T16:10:39.574Z,10.59
2023-05-26T16:15:42.808Z,10.54
2023-05-26T16:20:45.817Z,10.52
2023-05-26T16:25:52.823Z,10.42
2023-05-26T16:30:55.902Z,10.39
2023-05-26T16:35:59.219Z,10.36
2023-05-26T16:41:04.763Z,10.36
2023-05-26T16:46:09.038Z,10.30
2023-05-26T16:51:13.055Z,10.24
2023-05-26T16:56:16.020Z,10.21
2023-05-26T17:01:19.088Z,10.17
2023-05-26T17:06:22.013Z,10.07
2023-05-26T17:11:25.000Z,10.02
2023-05-26T17:16:28.010Z,9.95
2023-05-26T17:21:30.873Z,9.90
2023-05-26T17:26:33.882Z,9.85
2023-05-26T17:31:37.231Z,9.81
2023-05-26T17:36:40.900Z,9.76
2023-05-26T17:41:44.432Z,9.73
2023-05-26T17:46:47.541Z,9.72
2023-05-26T17:51:50.520Z,9.70
2023-05-26T17:56:53.388Z,9.67
2023-05-26T18:01:56.691Z,9.67
2023-05-26T18:06:59.724Z,9.68
2023-05-26T18:12:03.694Z,9.66
2023-05-26T18:17:06.558Z,9.62
2023-05-26T18:22:09.819Z,9.55
2023-05-26T18:27:13.259Z,9.37
2023-05-26T18:32:16.488Z,9.35
2023-05-26T18:37:19.735Z,9.31
2023-05-26T18:42:22.838Z,9.32
2023-05-26T18:47:26.445Z,9.22
2023-05-26T18:52:29.312Z,9.15
2023-05-26T18:57:32.577Z,9.14
2023-05-26T19:02:35.796Z,9.01
2023-05-26T19:07:38.797Z,8.76
2023-05-26T19:12:41.900Z,8.60
2023-05-26T19:17:44.835Z,8.51
2023-05-26T19:22:49.047Z,8.32
2023-05-26T19:27:52.341Z,8.02
2023-05-26T19:32:55.299Z,7.77
2023-05-26T19:37:58.454Z,7.79
2023-05-26T19:43:01.829Z,7.72
2023-05-26T19:48:04.971Z,7.62
2023-05-26T19:53:07.924Z,7.56
2023-05-26T19:58:10.905Z,7.47
2023-05-26T20:03:14.923Z,7.33
2023-05-26T20:08:17.899Z,7.22
2023-05-26T20:13:21.085Z,7.08
2023-05-26T20:18:24.093Z,6.84
2023-05-26T20:23:26.944Z,6.64
2023-05-26T20:28:29.896Z,6.50
2023-05-26T20:33:35.030Z,6.36
2023-05-26T20:38:39.574Z,6.26
2023-05-26T20:43:42.856Z,6.08
2023-05-26T20:48:48.229Z,5.99
2023-05-26T20:53:51.192Z,5.86
2023-05-26T20:58:54.445Z,5.67
2023-05-26T21:03:57.429Z,5.64
2023-05-26T21:09:00.439Z,5.62
2023-05-26T21:14:03.240Z,5.58
2023-05-26T21:19:06.581Z,5.56
2023-05-26T21:24:09.419Z,5.52
2023-05-26T21:29:12.735Z,5.54
2023-05-26T21:34:16.069Z,5.62
2023-05-26T21:39:18.888Z,5.66
2023-05-26T21:44:21.836Z,5.74
2023-05-26T21:49:24.739Z,5.71
2023-05-26T21:54:27.814Z,5.61
2023-05-26T21:59:30.829Z,5.54
2023-05-26T22:04:34.005Z,5.50
2023-05-26T22:09:36.839Z,5.52
2023-05-26T22:14:39.722Z,5.52
2023-05-26T22:19:42.744Z,5.64
2023-05-26T22:24:45.756Z,7.07
2023-05-26T22:29:48.666Z,6.86
2023-05-26T22:34:51.922Z,6.45
2023-05-26T22:39:54.865Z,6.34
2023-05-26T22:44:57.791Z,6.44
2023-05-26T22:50:00.676Z,6.53
2023-05-26T22:55:03.875Z,6.97
2023-05-26T23:00:08.673Z,7.02
2023-05-26T23:05:11.698Z,7.13
2023-05-26T23:10:14.700Z,7.79
2023-05-26T23:15:17.674Z,7.43
2023-05-26T23:20:20.666Z,7.30
2023-05-26T23:25:23.565Z,7.32
2023-05-26T23:30:26.511Z,7.38
2023-05-26T23:35:29.657Z,7.50
2023-05-26T23:40:32.616Z,7.63
2023-05-26T23:45:35.574Z,7.75
2023-05-26T23:50:38.561Z,7.92
2023-05-26T23:55:41.509Z,8.13
